createdAt,value
2022-12-14T00:01:20.529Z,39.67
2022-12-14T00:03:48.243Z,38.55
2022-12-14T00:06:17.589Z,37.85
2022-12-14T00:08:44.631Z,36.35
2022-12-14T00:11:11.844Z,41.55
2022-12-14T00:13:38.516Z,44.88
2022-12-14T00:16:07.107Z,35.90
2022-12-14T00:18:35.143Z,42.17
2022-12-14T00:21:06.476Z,34.60
2022-12-14T00:23:38.695Z,36.75
2022-12-14T00:26:09.901Z,38.25
2022-12-14T00:28:37.431Z,40.00
2022-12-14T00:31:04.389Z,33.90
2022-12-14T00:33:31.171Z,42.95
2022-12-14T00:35:59.218Z,36.65
2022-12-14T00:38:26.500Z,39.72
2022-12-14T00:40:54.016Z,41.30
2022-12-14T00:43:20.715Z,37.22
2022-12-14T00:45:47.430Z,36.03
2022-12-14T00:48:14.514Z,36.38
2022-12-14T00:50:41.213Z,34.10
2022-12-14T00:53:09.170Z,38.35
2022-12-14T00:55:39.408Z,36.83
2022-12-14T00:58:06.454Z,39.30
2022-12-14T01:00:33.542Z,35.35
2022-12-14T01:03:00.333Z,40.45
2022-12-14T01:05:26.921Z,34.42
2022-12-14T01:07:53.610Z,36.10
2022-12-14T01:10:21.591Z,35.22
2022-12-14T01:12:48.443Z,35.13
2022-12-14T01:15:15.051Z,32.90
2022-12-14T01:17:41.753Z,36.90
2022-12-14T01:20:09.356Z,37.60
2022-12-14T01:22:36.474Z,36.40
2022-12-14T01:25:04.262Z,33.97
2022-12-14T01:27:32.328Z,37.50
2022-12-14T01:29:58.931Z,37.28
2022-12-14T01:32:25.548Z,30.90
2022-12-14T01:34:52.225Z,31.20
2022-12-14T01:37:18.818Z,33.33
2022-12-14T01:39:46.593Z,32.22
2022-12-14T01:42:14.945Z,35.55
2022-12-14T01:44:57.123Z,29.38
2022-12-14T01:47:37.890Z,34.30
2022-12-14T01:50:11.179Z,36.13
2022-12-14T01:52:40.584Z,28.67
2022-12-14T01:55:10.999Z,30.27
2022-12-14T01:57:42.946Z,32.05
2022-12-14T02:00:13.045Z,32.53
2022-12-14T02:02:44.233Z,35.03
2022-12-14T02:05:13.364Z,31.73
2022-12-14T02:07:42.118Z,34.67
2022-12-14T02:10:09.974Z,38.60
2022-12-14T02:12:41.632Z,34.50
2022-12-14T02:15:09.078Z,38.17
2022-12-14T02:17:37.307Z,37.38
2022-12-14T02:20:04.753Z,38.22
2022-12-14T02:22:58.790Z,31.73
2022-12-14T02:25:49.735Z,36.97
2022-12-14T02:28:45.703Z,32.25
2022-12-14T02:31:20.897Z,36.47
2022-12-14T02:33:54.233Z,31.25
2022-12-14T02:36:28.400Z,29.30
2022-12-14T02:39:04.024Z,36.50
2022-12-14T02:41:39.215Z,35.45
2022-12-14T02:44:16.440Z,35.10
2022-12-14T02:46:51.957Z,33.78
2022-12-14T02:49:30.534Z,35.53
2022-12-14T02:52:03.151Z,40.90
2022-12-14T02:54:37.739Z,40.53
2022-12-14T02:57:11.097Z,44.42
2022-12-14T02:59:37.711Z,36.22
2022-12-14T03:02:07.011Z,36.90
2022-12-14T03:04:37.577Z,37.08
2022-12-14T03:07:31.307Z,45.55
2022-12-14T03:10:01.458Z,36.42
2022-12-14T03:12:28.300Z,40.45
2022-12-14T03:14:58.327Z,37.05
2022-12-14T03:17:30.237Z,41.30
2022-12-14T03:20:03.269Z,35.55
2022-12-14T03:25:02.905Z,45.95
2022-12-14T03:27:33.199Z,36.38
2022-12-14T03:30:03.504Z,38.88
2022-12-14T03:32:35.269Z,39.65
2022-12-14T03:35:07.217Z,38.75
2022-12-14T03:37:39.464Z,39.25
2022-12-14T03:40:09.267Z,42.30
2022-12-14T03:42:42.130Z,44.35
2022-12-14T03:45:21.513Z,42.35
2022-12-14T03:48:00.503Z,39.33
2022-12-14T03:50:34.897Z,46.15
2022-12-14T03:53:09.449Z,34.00
2022-12-14T03:55:42.921Z,47.85
2022-12-14T03:58:22.162Z,42.55
2022-12-14T04:00:54.746Z,42.10
2022-12-14T04:03:29.467Z,36.97
2022-12-14T04:06:02.435Z,39.58
2022-12-14T04:08:34.368Z,39.33
2022-12-14T04:11:03.704Z,35.65
2022-12-14T04:13:36.420Z,33.17
2022-12-14T04:16:07.615Z,40.13
2022-12-14T04:18:40.238Z,34.85
2022-12-14T04:21:11.526Z,34.05
2022-12-14T04:23:44.832Z,32.35
2022-12-14T04:26:16.145Z,38.67
2022-12-14T04:28:46.354Z,36.50
2022-12-14T04:31:17.382Z,37.75
2022-12-14T04:33:50.754Z,38.42
2022-12-14T04:36:22.355Z,37.47
2022-12-14T04:38:53.573Z,33.35
2022-12-14T04:41:24.727Z,39.50
2022-12-14T04:43:55.587Z,40.15
2022-12-14T04:46:26.097Z,41.00
2022-12-14T04:49:01.247Z,42.00
2022-12-14T04:51:31.931Z,45.70
2022-12-14T04:54:06.287Z,44.72
2022-12-14T04:56:37.458Z,41.78
2022-12-14T04:59:04.222Z,52.40
2022-12-14T05:01:41.369Z,57.28
2022-12-14T05:04:19.317Z,62.45
2022-12-14T05:06:56.410Z,45.50
2022-12-14T05:09:27.197Z,48.88
2022-12-14T05:12:03.491Z,48.38
2022-12-14T05:14:35.117Z,50.92
2022-12-14T05:17:08.561Z,43.85
2022-12-14T05:19:37.765Z,41.42
2022-12-14T05:22:07.437Z,47.08
2022-12-14T05:24:34.035Z,41.53
2022-12-14T05:27:00.670Z,48.00
2022-12-14T05:29:27.585Z,48.42
2022-12-14T05:31:54.340Z,45.45
2022-12-14T05:34:21.478Z,50.30
2022-12-14T05:36:49.625Z,46.40
2022-12-14T05:39:16.681Z,43.38
2022-12-14T05:41:43.697Z,42.58
2022-12-14T05:44:10.573Z,42.47
2022-12-14T05:46:37.169Z,43.58
2022-12-14T05:49:04.101Z,42.60
2022-12-14T05:51:30.668Z,40.85
2022-12-14T05:53:58.595Z,38.53
2022-12-14T05:56:25.225Z,43.38
2022-12-14T05:58:52.022Z,50.22
2022-12-14T06:01:19.784Z,45.05
2022-12-14T06:03:46.789Z,41.95
2022-12-14T06:06:14.477Z,43.10
2022-12-14T06:08:43.309Z,45.25
2022-12-14T06:11:13.314Z,40.55
2022-12-14T06:13:41.583Z,41.45
2022-12-14T06:16:10.534Z,40.65
2022-12-14T06:18:41.014Z,42.88
2022-12-14T06:21:07.684Z,47.90
2022-12-14T06:23:34.310Z,38.33
2022-12-14T06:26:00.999Z,62.47
2022-12-14T06:28:29.023Z,68.22
2022-12-14T06:30:55.735Z,98.28
2022-12-14T06:33:22.506Z,104.60
2022-12-14T06:35:49.116Z,89.15
2022-12-14T06:38:16.573Z,89.68
2022-12-14T06:40:43.628Z,84.47
2022-12-14T06:43:10.730Z,63.90
2022-12-14T06:45:38.805Z,60.80
2022-12-14T06:48:06.091Z,63.65
2022-12-14T06:50:32.802Z,52.83
2022-12-14T06:52:59.470Z,50.60
2022-12-14T06:55:26.701Z,47.75
2022-12-14T06:57:54.246Z,67.15
2022-12-14T07:00:22.310Z,57.63
2022-12-14T07:02:50.830Z,46.88
2022-12-14T07:05:17.534Z,55.33
2022-12-14T07:07:44.382Z,56.40
2022-12-14T07:10:11.512Z,64.38
2022-12-14T07:12:38.538Z,58.00
2022-12-14T07:15:06.176Z,57.42
2022-12-14T07:17:35.245Z,73.20
2022-12-14T07:20:04.608Z,90.28
2022-12-14T07:22:31.221Z,79.40
2022-12-14T07:24:57.850Z,84.72
2022-12-14T07:27:24.518Z,75.15
2022-12-14T07:29:51.225Z,79.88
2022-12-14T07:32:17.885Z,55.60
2022-12-14T07:34:44.473Z,51.47
2022-12-14T07:37:13.505Z,42.00
2022-12-14T07:39:40.139Z,48.65
2022-12-14T07:42:06.761Z,47.72
2022-12-14T07:44:33.463Z,54.15
2022-12-14T07:47:00.125Z,43.95
2022-12-14T07:49:26.788Z,46.80
2022-12-14T07:51:53.363Z,42.55
2022-12-14T07:54:21.428Z,39.97
2022-12-14T07:56:48.064Z,35.92
2022-12-14T07:59:16.375Z,44.70
2022-12-14T08:01:44.349Z,48.45
2022-12-14T08:04:13.694Z,57.50
2022-12-14T08:06:40.728Z,58.60
2022-12-14T08:09:08.880Z,62.35
2022-12-14T08:11:37.079Z,45.78
2022-12-14T08:14:06.275Z,53.63
2022-12-14T08:16:33.966Z,57.05
2022-12-14T08:19:01.834Z,58.22
2022-12-14T08:21:29.477Z,49.80
2022-12-14T08:23:56.884Z,45.70
2022-12-14T08:26:30.040Z,43.95
2022-12-14T08:29:01.512Z,38.90
2022-12-14T08:31:28.530Z,45.45
2022-12-14T08:33:55.767Z,34.35
2022-12-14T08:36:26.577Z,42.30
2022-12-14T08:38:53.919Z,36.38
2022-12-14T08:41:21.062Z,42.72
2022-12-14T08:43:50.066Z,36.63
2022-12-14T08:46:18.719Z,38.90
2022-12-14T08:48:45.456Z,38.70
2022-12-14T08:51:12.698Z,42.97
2022-12-14T08:53:40.119Z,41.97
2022-12-14T08:56:08.701Z,40.00
2022-12-14T08:58:35.396Z,36.53
2022-12-14T09:01:03.051Z,34.63
2022-12-14T09:03:31.693Z,43.08
2022-12-14T09:06:03.706Z,41.88
2022-12-14T09:08:30.570Z,36.50
2022-12-14T09:10:57.237Z,39.33
2022-12-14T09:13:23.972Z,39.00
2022-12-14T09:15:57.425Z,42.78
2022-12-14T09:18:24.055Z,38.97
2022-12-14T09:20:52.213Z,35.25
2022-12-14T09:23:18.893Z,35.15
2022-12-14T09:25:45.522Z,38.72
2022-12-14T09:28:12.114Z,32.28
2022-12-14T09:30:38.858Z,35.10
2022-12-14T09:33:05.576Z,37.50
2022-12-14T09:35:32.321Z,37.53
2022-12-14T09:38:00.567Z,37.58
2022-12-14T09:40:31.368Z,42.35
2022-12-14T09:43:03.606Z,32.03
2022-12-14T09:45:33.401Z,30.90
2022-12-14T09:48:08.141Z,36.05
2022-12-14T09:50:36.514Z,39.30
2022-12-14T09:53:08.052Z,37.92
2022-12-14T09:55:37.318Z,35.80
2022-12-14T09:58:13.601Z,32.22
2022-12-14T10:00:53.103Z,37.92
2022-12-14T10:03:41.976Z,35.38
2022-12-14T10:06:31.752Z,33.13
2022-12-14T10:09:12.122Z,33.50
2022-12-14T10:11:49.816Z,30.83
2022-12-14T10:14:23.306Z,35.80
2022-12-14T10:17:00.619Z,35.92
2022-12-14T10:19:37.672Z,31.30
2022-12-14T10:22:10.051Z,35.15
2022-12-14T10:24:42.148Z,28.63
2022-12-14T10:27:14.119Z,35.28
2022-12-14T10:29:44.040Z,39.10
2022-12-14T10:32:20.423Z,30.80
2022-12-14T10:34:47.761Z,31.00
2022-12-14T10:37:25.908Z,32.10
2022-12-14T10:40:28.891Z,35.30
2022-12-14T10:43:20.769Z,41.60
2022-12-14T10:45:55.861Z,34.63
2022-12-14T10:48:38.021Z,31.10
2022-12-14T10:51:07.862Z,35.30
2022-12-14T10:53:41.278Z,31.33
2022-12-14T10:56:14.322Z,37.45
2022-12-14T10:58:41.048Z,34.47
2022-12-14T11:01:13.148Z,35.10
2022-12-14T11:03:41.546Z,23.83
2022-12-14T11:06:15.580Z,32.17
2022-12-14T11:08:44.048Z,34.75
2022-12-14T11:11:19.757Z,34.28
2022-12-14T11:13:51.750Z,33.42
2022-12-14T11:16:30.317Z,33.92
2022-12-14T11:19:01.737Z,29.00
2022-12-14T11:21:34.132Z,33.88
2022-12-14T11:24:00.879Z,31.07
2022-12-14T11:26:33.802Z,33.28
2022-12-14T11:29:02.424Z,37.17
2022-12-14T11:31:34.384Z,42.08
2022-12-14T11:34:03.050Z,40.03
2022-12-14T11:36:33.034Z,42.28
2022-12-14T11:39:01.301Z,42.30
2022-12-14T11:41:32.690Z,32.50
2022-12-14T11:44:21.716Z,36.97
2022-12-14T11:46:53.658Z,37.45
2022-12-14T11:49:24.936Z,34.42
2022-12-14T11:52:00.040Z,34.17
2022-12-14T11:54:26.870Z,34.22
2022-12-14T11:57:01.576Z,35.60
2022-12-14T11:59:36.931Z,39.63
2022-12-14T12:02:20.219Z,38.60
2022-12-14T12:04:52.581Z,37.63
2022-12-14T12:07:31.822Z,37.73
2022-12-14T12:10:19.203Z,36.35
2022-12-14T12:12:54.315Z,34.83
2022-12-14T12:15:23.875Z,31.25
2022-12-14T12:17:54.410Z,32.15
2022-12-14T12:20:28.158Z,36.30
2022-12-14T12:22:59.959Z,30.98
2022-12-14T12:25:36.823Z,30.83
2022-12-14T12:28:15.121Z,31.90
2022-12-14T12:30:47.694Z,34.58
2022-12-14T12:33:23.786Z,28.20
2022-12-14T12:35:53.938Z,28.15
2022-12-14T12:38:32.746Z,28.83
2022-12-14T12:41:06.374Z,29.65
2022-12-14T12:43:41.896Z,30.75
2022-12-14T12:46:14.275Z,40.90
2022-12-14T12:48:47.891Z,33.07
2022-12-14T12:51:20.231Z,36.55
2022-12-14T12:53:50.260Z,43.40
2022-12-14T12:56:20.514Z,42.78
2022-12-14T12:58:52.992Z,36.13
2022-12-14T13:01:26.030Z,33.50
2022-12-14T13:03:56.722Z,28.98
2022-12-14T13:06:27.596Z,30.10
2022-12-14T13:08:58.693Z,33.17
2022-12-14T13:11:29.991Z,37.05
2022-12-14T13:14:02.847Z,34.50
2022-12-14T13:16:36.464Z,32.95
2022-12-14T13:19:48.706Z,32.95
2022-12-14T13:22:07.157Z,31.95
2022-12-14T13:24:36.534Z,33.13
2022-12-14T13:27:33.423Z,32.30
2022-12-14T13:30:28.285Z,30.63
2022-12-14T13:33:09.272Z,31.83
2022-12-14T13:35:59.063Z,29.73
2022-12-14T13:38:47.083Z,29.52
2022-12-14T13:41:27.379Z,29.90
2022-12-14T13:44:14.231Z,30.70
2022-12-14T13:46:43.323Z,29.80
2022-12-14T13:49:20.182Z,32.20
2022-12-14T13:51:49.932Z,27.42
2022-12-14T13:54:21.305Z,29.30
2022-12-14T13:56:49.847Z,28.52
2022-12-14T13:59:27.812Z,36.63
2022-12-14T14:01:58.804Z,31.38
2022-12-14T14:04:28.400Z,30.15
2022-12-14T14:06:56.085Z,31.90
2022-12-14T14:09:56.209Z,30.52
2022-12-14T14:12:49.872Z,41.08
2022-12-14T14:15:36.022Z,37.78
2022-12-14T14:18:15.522Z,41.83
2022-12-14T14:20:46.955Z,40.47
2022-12-14T14:23:53.816Z,40.08
2022-12-14T14:26:26.371Z,35.58
2022-12-14T14:29:19.015Z,36.45
2022-12-14T14:31:48.816Z,31.42
2022-12-14T14:34:23.287Z,33.47
2022-12-14T14:36:50.974Z,38.10
2022-12-14T14:39:56.639Z,39.60
2022-12-14T14:42:25.675Z,33.95
2022-12-14T14:44:55.890Z,40.13
2022-12-14T14:47:26.494Z,34.65
2022-12-14T14:49:58.963Z,30.75
2022-12-14T14:52:45.083Z,24.95
2022-12-14T14:55:59.278Z,30.42
2022-12-14T15:01:01.873Z,36.80
2022-12-14T15:03:38.634Z,43.55
2022-12-14T15:06:12.494Z,35.33
2022-12-14T15:08:40.768Z,37.33
2022-12-14T15:11:16.081Z,40.28
2022-12-14T15:13:46.949Z,34.28
2022-12-14T15:16:27.595Z,32.20
2022-12-14T15:18:54.462Z,31.23
2022-12-14T15:21:22.775Z,35.72
2022-12-14T15:23:52.351Z,45.17
2022-12-14T15:26:23.218Z,37.63
2022-12-14T15:28:52.705Z,41.45
2022-12-14T15:31:28.206Z,38.20
2022-12-14T15:33:55.314Z,36.78
2022-12-14T15:36:29.236Z,38.05
2022-12-14T15:38:57.681Z,36.42
2022-12-14T15:41:26.160Z,31.05
2022-12-14T15:43:58.148Z,38.08
2022-12-14T15:46:28.638Z,34.60
2022-12-14T15:48:58.161Z,36.60
2022-12-14T15:51:30.516Z,31.83
2022-12-14T15:53:58.674Z,35.90
2022-12-14T15:56:30.366Z,34.38
2022-12-14T15:58:59.953Z,36.03
2022-12-14T16:01:31.771Z,39.95
2022-12-14T16:04:01.052Z,33.20
2022-12-14T16:06:31.094Z,34.33
2022-12-14T16:09:02.378Z,30.90
2022-12-14T16:11:36.794Z,35.67
2022-12-14T16:14:15.158Z,39.92
2022-12-14T16:16:42.005Z,42.50
2022-12-14T16:19:26.484Z,36.17
2022-12-14T16:22:15.804Z,38.70
2022-12-14T16:24:59.007Z,37.80
2022-12-14T16:27:26.516Z,40.47
2022-12-14T16:30:18.392Z,32.92
2022-12-14T16:32:50.368Z,42.42
2022-12-14T16:35:23.079Z,41.33
2022-12-14T16:37:53.790Z,40.40
2022-12-14T16:40:33.246Z,44.25
2022-12-14T16:43:00.275Z,43.03
2022-12-14T16:46:12.143Z,41.08
2022-12-14T16:48:42.824Z,49.95
2022-12-14T16:51:50.826Z,35.10
2022-12-14T16:54:27.299Z,40.03
2022-12-14T16:56:58.240Z,51.40
2022-12-14T16:59:28.469Z,41.45
2022-12-14T17:01:56.148Z,38.40
2022-12-14T17:04:23.738Z,47.25
2022-12-14T17:06:52.618Z,47.38
2022-12-14T17:09:21.774Z,46.65
2022-12-14T17:11:51.521Z,47.95
2022-12-14T17:14:18.814Z,41.50
2022-12-14T17:16:46.764Z,48.05
2022-12-14T17:19:23.359Z,47.53
2022-12-14T17:21:51.053Z,50.60
2022-12-14T17:24:20.171Z,44.80
2022-12-14T17:26:47.691Z,45.78
2022-12-14T17:29:24.182Z,48.38
2022-12-14T17:31:53.333Z,52.10
2022-12-14T17:34:20.045Z,53.45
2022-12-14T17:36:47.077Z,52.88
2022-12-14T17:39:13.859Z,56.38
2022-12-14T17:41:43.368Z,55.67
2022-12-14T17:44:13.840Z,57.53
2022-12-14T17:46:42.820Z,52.83
2022-12-14T17:49:12.240Z,61.53
2022-12-14T17:51:40.164Z,64.75
2022-12-14T17:54:07.380Z,56.85
2022-12-14T17:56:34.035Z,57.63
2022-12-14T17:59:00.647Z,58.42
2022-12-14T18:01:27.509Z,59.33
2022-12-14T18:03:55.739Z,68.68
2022-12-14T18:06:22.467Z,63.83
2022-12-14T18:08:49.252Z,61.20
2022-12-14T18:11:18.173Z,59.45
2022-12-14T18:13:45.146Z,51.03
2022-12-14T18:16:16.904Z,51.63
2022-12-14T18:18:44.364Z,54.47
2022-12-14T18:21:18.533Z,49.17
2022-12-14T18:23:46.034Z,47.13
2022-12-14T18:26:13.532Z,50.33
2022-12-14T18:28:40.284Z,52.22
2022-12-14T18:31:08.001Z,53.33
2022-12-14T18:33:35.005Z,58.88
2022-12-14T18:36:02.101Z,59.03
2022-12-14T18:38:30.228Z,54.60
2022-12-14T18:40:57.216Z,51.50
2022-12-14T18:43:25.219Z,53.83
2022-12-14T18:45:52.677Z,66.47
2022-12-14T18:48:19.695Z,58.60
2022-12-14T18:50:46.494Z,65.13
2022-12-14T18:53:18.284Z,77.75
2022-12-14T18:55:46.789Z,67.97
2022-12-14T18:58:16.271Z,79.95
2022-12-14T19:00:44.001Z,84.88
2022-12-14T19:03:10.818Z,95.03
2022-12-14T19:05:37.613Z,93.72
2022-12-14T19:08:04.741Z,95.10
2022-12-14T19:10:32.555Z,82.95
2022-12-14T19:13:00.661Z,93.10
2022-12-14T19:15:28.887Z,88.72
2022-12-14T19:17:56.260Z,97.88
2022-12-14T19:20:24.058Z,94.28
2022-12-14T19:22:51.074Z,97.60
2022-12-14T19:25:19.176Z,104.38
2022-12-14T19:28:56.085Z,96.30
2022-12-14T19:30:35.152Z,97.22
2022-12-14T19:33:02.064Z,106.20
2022-12-14T19:35:28.771Z,94.82
2022-12-14T19:37:55.406Z,94.15
2022-12-14T19:40:22.380Z,86.25
2022-12-14T19:42:49.278Z,82.13
2022-12-14T19:45:16.044Z,82.38
2022-12-14T19:47:44.176Z,86.28
2022-12-14T19:50:13.794Z,79.55
2022-12-14T19:52:40.543Z,84.15
2022-12-14T19:55:08.031Z,75.80
2022-12-14T19:57:34.936Z,88.65
2022-12-14T20:00:02.255Z,88.75
2022-12-14T20:02:29.145Z,79.78
2022-12-14T20:04:57.340Z,84.72
2022-12-14T20:07:24.036Z,90.22
2022-12-14T20:09:50.691Z,83.82
2022-12-14T20:12:17.413Z,89.38
2022-12-14T20:14:44.051Z,89.70
2022-12-14T20:17:11.701Z,86.53
2022-12-14T20:19:39.475Z,92.05
2022-12-14T20:22:07.908Z,95.45
2022-12-14T20:24:34.686Z,97.78
2022-12-14T20:27:01.366Z,99.82
2022-12-14T20:29:28.091Z,106.60
2022-12-14T20:31:54.815Z,112.20
2022-12-14T20:34:21.732Z,109.13
2022-12-14T20:36:48.557Z,105.40
2022-12-14T20:39:16.807Z,101.35
2022-12-14T20:41:43.448Z,105.68
2022-12-14T20:44:10.379Z,101.82
2022-12-14T20:46:38.426Z,129.02
2022-12-14T20:49:07.838Z,118.82
2022-12-14T20:51:36.600Z,128.13
2022-12-14T20:54:04.737Z,134.57
2022-12-14T20:56:34.178Z,116.90
2022-12-14T20:59:01.027Z,127.15
2022-12-14T21:01:27.789Z,103.47
2022-12-14T21:03:54.531Z,110.18
2022-12-14T21:06:22.487Z,123.15
2022-12-14T21:08:49.654Z,119.35
2022-12-14T21:11:16.209Z,114.03
2022-12-14T21:13:44.224Z,116.45
2022-12-14T21:16:10.960Z,106.07
2022-12-14T21:18:37.623Z,101.07
2022-12-14T21:21:05.474Z,104.15
2022-12-14T21:23:32.732Z,106.55
2022-12-14T21:26:01.743Z,107.60
2022-12-14T21:28:32.091Z,115.63
2022-12-14T21:31:04.162Z,115.97
2022-12-14T21:33:31.267Z,118.55
2022-12-14T21:35:58.166Z,123.65
2022-12-14T21:38:24.781Z,119.97
2022-12-14T21:40:52.890Z,126.05
2022-12-14T21:43:19.524Z,126.75
2022-12-14T21:45:46.345Z,128.93
2022-12-14T21:48:14.391Z,129.80
2022-12-14T21:50:41.014Z,210.40
2022-12-14T21:53:07.567Z,189.10
2022-12-14T21:55:34.256Z,178.93
2022-12-14T21:58:00.885Z,169.07
2022-12-14T22:00:27.459Z,188.30
2022-12-14T22:02:54.233Z,190.48
2022-12-14T22:05:22.353Z,164.32
2022-12-14T22:07:48.945Z,174.98
2022-12-14T22:10:19.942Z,203.15
2022-12-14T22:12:49.631Z,178.48
2022-12-14T22:15:16.444Z,157.55
2022-12-14T22:17:42.998Z,140.80
2022-12-14T22:20:10.827Z,129.38
2022-12-14T22:22:38.813Z,116.68
2022-12-14T22:25:06.149Z,107.68
2022-12-14T22:27:32.814Z,122.28
2022-12-14T22:29:59.627Z,116.07
2022-12-14T22:32:26.210Z,117.40
2022-12-14T22:34:52.879Z,110.18
2022-12-14T22:37:19.492Z,128.68
2022-12-14T22:39:47.770Z,136.70
2022-12-14T22:42:15.028Z,160.45
2022-12-14T22:44:41.653Z,175.18
2022-12-14T22:47:08.331Z,197.48
2022-12-14T22:49:35.086Z,154.80
2022-12-14T22:52:01.721Z,131.63
2022-12-14T22:54:29.802Z,118.90
2022-12-14T22:56:59.955Z,99.57
2022-12-14T22:59:29.573Z,106.95
2022-12-14T23:01:56.522Z,113.35
2022-12-14T23:04:23.237Z,88.88
2022-12-14T23:06:49.975Z,94.50
2022-12-14T23:09:16.661Z,103.00
2022-12-14T23:11:43.349Z,96.55
2022-12-14T23:14:11.389Z,111.10
2022-12-14T23:16:38.028Z,109.22
2022-12-14T23:19:04.756Z,99.50
2022-12-14T23:21:31.417Z,105.43
2022-12-14T23:23:58.043Z,102.10
2022-12-14T23:26:24.709Z,88.13
2022-12-14T23:28:51.360Z,100.80
2022-12-14T23:31:19.390Z,101.03
2022-12-14T23:33:46.102Z,105.80
2022-12-14T23:36:12.890Z,106.00
2022-12-14T23:38:39.551Z,97.97
2022-12-14T23:41:06.115Z,100.97
2022-12-14T23:43:33.114Z,98.10
2022-12-14T23:46:00.752Z,95.40
2022-12-14T23:48:28.789Z,95.95
2022-12-14T23:50:55.450Z,107.80
2022-12-14T23:53:22.062Z,104.95
2022-12-14T23:55:48.696Z,120.47
2022-12-14T23:58:15.494Z,103.15
